createdAt,value
2023-01-06T00:02:18.708Z,9.30
2023-01-06T00:04:47.175Z,9.15
2023-01-06T00:07:15.557Z,9.13
2023-01-06T00:09:43.688Z,9.29
2023-01-06T00:12:11.821Z,9.32
2023-01-06T00:14:43.173Z,9.24
2023-01-06T00:17:12.204Z,9.27
2023-01-06T00:19:40.487Z,9.19
2023-01-06T00:22:08.993Z,8.88
2023-01-06T00:24:37.289Z,8.82
2023-01-06T00:27:05.811Z,8.77
2023-01-06T00:29:34.436Z,8.82
2023-01-06T00:32:04.410Z,8.88
2023-01-06T00:34:32.468Z,8.48
2023-01-06T00:37:01.547Z,8.59
2023-01-06T00:39:29.656Z,8.73
2023-01-06T00:42:07.814Z,8.86
2023-01-06T00:44:38.231Z,8.64
2023-01-06T00:47:09.822Z,9.05
2023-01-06T00:49:39.689Z,9.04
2023-01-06T00:52:08.387Z,9.05
2023-01-06T00:54:37.720Z,9.09
2023-01-06T00:57:07.855Z,8.89
2023-01-06T00:59:36.605Z,8.65
2023-01-06T01:02:05.330Z,8.69
2023-01-06T01:04:36.752Z,8.94
2023-01-06T01:07:05.308Z,9.07
2023-01-06T01:09:34.333Z,8.86
2023-01-06T01:12:12.123Z,8.95
2023-01-06T01:14:43.966Z,9.09
2023-01-06T01:17:13.443Z,9.12
2023-01-06T01:19:43.269Z,9.04
2023-01-06T01:22:12.056Z,9.12
2023-01-06T01:24:40.587Z,9.26
2023-01-06T01:27:09.113Z,9.34
2023-01-06T01:29:37.196Z,9.24
2023-01-06T01:32:06.193Z,9.27
2023-01-06T01:34:34.373Z,9.35
2023-01-06T01:37:05.123Z,9.35
2023-01-06T01:39:33.467Z,9.38
2023-01-06T01:42:02.034Z,9.28
2023-01-06T01:45:00.469Z,9.29
2023-01-06T01:47:35.163Z,9.33
2023-01-06T01:50:08.278Z,9.40
2023-01-06T01:52:38.194Z,9.46
2023-01-06T01:55:08.289Z,9.48
2023-01-06T01:57:41.661Z,9.48
2023-01-06T02:00:11.286Z,9.40
2023-01-06T02:02:43.926Z,9.36
2023-01-06T02:05:17.753Z,9.29
2023-01-06T02:07:49.027Z,9.23
2023-01-06T02:10:19.833Z,9.20
2023-01-06T02:12:51.615Z,9.30
2023-01-06T02:15:23.490Z,9.37
2023-01-06T02:18:03.460Z,9.30
2023-01-06T02:21:06.214Z,9.11
2023-01-06T02:24:01.048Z,9.23
2023-01-06T02:27:12.389Z,9.20
2023-01-06T02:30:11.589Z,9.27
2023-01-06T02:33:02.683Z,9.03
2023-01-06T02:35:54.927Z,8.88
2023-01-06T02:38:36.513Z,8.85
2023-01-06T02:41:18.390Z,8.95
2023-01-06T02:43:54.071Z,9.21
2023-01-06T02:46:35.789Z,9.27
2023-01-06T02:49:16.891Z,9.20
2023-01-06T02:51:52.255Z,9.26
2023-01-06T02:54:31.972Z,9.24
2023-01-06T02:57:08.466Z,9.21
2023-01-06T02:59:42.876Z,9.05
2023-01-06T03:02:12.906Z,8.90
2023-01-06T03:04:47.892Z,8.90
2023-01-06T03:07:19.497Z,8.75
2023-01-06T03:09:49.039Z,8.72
2023-01-06T03:12:25.268Z,8.66
2023-01-06T03:14:56.253Z,8.58
2023-01-06T03:17:25.955Z,8.58
2023-01-06T03:19:55.729Z,8.51
2023-01-06T03:22:25.293Z,8.40
2023-01-06T03:24:54.982Z,8.13
2023-01-06T03:27:28.635Z,7.83
2023-01-06T03:29:57.989Z,7.84
2023-01-06T03:32:30.216Z,7.81
2023-01-06T03:35:20.951Z,7.63
2023-01-06T03:37:54.826Z,7.71
2023-01-06T03:40:34.039Z,8.05
2023-01-06T03:43:12.524Z,7.81
2023-01-06T03:45:54.263Z,8.35
2023-01-06T03:48:41.867Z,8.45
2023-01-06T03:51:21.633Z,8.55
2023-01-06T03:53:55.675Z,8.19
2023-01-06T03:56:29.437Z,7.99
2023-01-06T03:59:02.585Z,8.21
2023-01-06T04:01:32.237Z,8.05
2023-01-06T04:04:03.412Z,8.27
2023-01-06T04:06:33.901Z,8.03
2023-01-06T04:09:05.168Z,8.01
2023-01-06T04:11:54.525Z,8.04
2023-01-06T04:14:23.368Z,8.02
2023-01-06T04:16:52.529Z,8.15
2023-01-06T04:19:21.294Z,8.07
2023-01-06T04:21:50.910Z,8.09
2023-01-06T04:24:19.345Z,8.19
2023-01-06T04:26:48.439Z,8.00
2023-01-06T04:29:17.488Z,8.20
2023-01-06T04:31:46.691Z,8.21
2023-01-06T04:34:15.521Z,8.21
2023-01-06T04:36:43.681Z,8.18
2023-01-06T04:39:13.676Z,8.27
2023-01-06T04:41:41.961Z,8.26
2023-01-06T04:44:09.985Z,8.26
2023-01-06T04:46:39.382Z,8.28
2023-01-06T04:49:07.756Z,8.17
2023-01-06T04:51:35.720Z,8.36
2023-01-06T04:54:04.062Z,8.20
2023-01-06T04:56:34.071Z,8.32
2023-01-06T04:59:02.460Z,8.37
2023-01-06T05:01:30.813Z,8.52
2023-01-06T05:03:59.294Z,8.59
2023-01-06T05:06:28.044Z,8.46
2023-01-06T05:08:56.539Z,8.47
2023-01-06T05:11:26.862Z,8.50
2023-01-06T05:13:56.269Z,8.38
2023-01-06T05:16:27.050Z,8.43
2023-01-06T05:18:56.665Z,8.36
2023-01-06T05:21:26.401Z,8.15
2023-01-06T05:23:55.540Z,8.23
2023-01-06T05:26:26.563Z,8.37
2023-01-06T05:28:56.927Z,8.25
2023-01-06T05:31:25.581Z,8.42
2023-01-06T05:33:53.834Z,8.68
2023-01-06T05:36:21.954Z,8.64
2023-01-06T05:38:53.388Z,8.76
2023-01-06T05:41:21.932Z,8.79
2023-01-06T05:43:50.094Z,8.58
2023-01-06T05:46:20.108Z,8.60
2023-01-06T05:48:48.393Z,8.23
2023-01-06T05:51:18.125Z,8.12
2023-01-06T05:53:47.789Z,7.95
2023-01-06T05:56:17.950Z,8.42
2023-01-06T05:58:47.849Z,8.48
2023-01-06T06:01:18.193Z,8.47
2023-01-06T06:03:48.319Z,8.37
2023-01-06T06:06:17.663Z,8.72
2023-01-06T06:08:45.978Z,8.68
2023-01-06T06:11:16.551Z,8.28
2023-01-06T06:13:47.640Z,8.13
2023-01-06T06:16:18.194Z,8.27
2023-01-06T06:18:51.221Z,8.52
2023-01-06T06:21:22.022Z,8.76
2023-01-06T06:23:51.031Z,8.40
2023-01-06T06:26:19.150Z,8.28
2023-01-06T06:28:47.218Z,8.62
2023-01-06T06:31:18.302Z,8.16
2023-01-06T06:33:50.868Z,8.09
2023-01-06T06:36:19.795Z,8.26
2023-01-06T06:38:49.459Z,8.12
2023-01-06T06:41:18.435Z,8.22
2023-01-06T06:43:46.443Z,8.13
2023-01-06T06:46:14.701Z,8.09
2023-01-06T06:48:42.780Z,8.46
2023-01-06T06:51:17.059Z,8.20
2023-01-06T06:53:46.145Z,7.96
2023-01-06T06:56:16.484Z,8.04
2023-01-06T06:58:45.184Z,8.21
2023-01-06T07:01:15.549Z,8.06
2023-01-06T07:03:44.705Z,7.92
2023-01-06T07:06:18.598Z,8.36
2023-01-06T07:08:48.216Z,8.27
2023-01-06T07:11:16.704Z,8.48
2023-01-06T07:13:44.960Z,8.68
2023-01-06T07:16:14.343Z,8.65
2023-01-06T07:18:42.889Z,8.45
2023-01-06T07:21:11.838Z,8.49
2023-01-06T07:23:41.471Z,8.23
2023-01-06T07:26:10.736Z,8.51
2023-01-06T07:28:39.273Z,8.27
2023-01-06T07:31:07.874Z,8.71
2023-01-06T07:33:36.301Z,8.36
2023-01-06T07:36:05.151Z,8.56
2023-01-06T07:38:33.336Z,8.75
2023-01-06T07:41:03.944Z,8.63
2023-01-06T07:43:32.400Z,8.94
2023-01-06T07:46:00.572Z,8.80
2023-01-06T07:48:28.926Z,8.61
2023-01-06T07:50:58.973Z,8.20
2023-01-06T07:53:27.725Z,8.91
2023-01-06T07:55:56.582Z,8.24
2023-01-06T07:58:26.923Z,8.63
2023-01-06T08:00:55.575Z,8.62
2023-01-06T08:03:24.504Z,8.39
2023-01-06T08:05:52.894Z,7.79
2023-01-06T08:08:21.408Z,7.94
2023-01-06T08:10:49.749Z,8.26
2023-01-06T08:13:20.455Z,8.33
2023-01-06T08:15:52.057Z,8.71
2023-01-06T08:18:20.801Z,8.08
2023-01-06T08:20:49.039Z,8.08
2023-01-06T08:23:17.479Z,8.00
2023-01-06T08:25:46.105Z,7.68
2023-01-06T08:28:14.477Z,8.62
2023-01-06T08:30:44.345Z,8.37
2023-01-06T08:33:15.569Z,8.82
2023-01-06T08:35:46.980Z,8.47
2023-01-06T08:38:15.414Z,8.37
2023-01-06T08:40:43.781Z,9.20
2023-01-06T08:43:12.408Z,9.07
2023-01-06T08:45:41.277Z,8.82
2023-01-06T08:48:09.655Z,9.31
2023-01-06T08:50:41.204Z,9.13
2023-01-06T08:53:10.063Z,9.08
2023-01-06T08:55:40.722Z,9.07
2023-01-06T08:58:11.235Z,9.47
2023-01-06T09:00:42.656Z,9.03
2023-01-06T09:03:11.469Z,9.38
2023-01-06T09:05:41.789Z,9.13
2023-01-06T09:08:10.603Z,8.46
2023-01-06T09:10:39.252Z,8.63
2023-01-06T09:13:08.282Z,8.25
2023-01-06T09:15:40.542Z,8.70
2023-01-06T09:18:09.820Z,9.18
2023-01-06T09:20:39.268Z,8.88
2023-01-06T09:23:09.516Z,9.32
2023-01-06T09:25:38.037Z,9.23
2023-01-06T09:28:06.844Z,9.74
2023-01-06T09:30:35.499Z,9.62
2023-01-06T09:33:03.899Z,9.75
2023-01-06T09:35:32.192Z,9.65
2023-01-06T09:38:00.978Z,9.58
2023-01-06T09:40:39.426Z,9.21
2023-01-06T09:43:21.012Z,10.04
2023-01-06T09:45:55.204Z,10.46
2023-01-06T09:48:29.314Z,10.69
2023-01-06T09:51:02.765Z,11.14
2023-01-06T09:53:35.223Z,10.80
2023-01-06T09:56:10.769Z,10.54
2023-01-06T09:58:43.649Z,9.71
2023-01-06T10:43:22.896Z,10.46
2023-01-06T10:45:53.523Z,10.03
2023-01-06T10:48:30.700Z,10.06
2023-01-06T10:50:59.169Z,9.86
2023-01-06T10:53:27.460Z,10.01
2023-01-06T10:55:59.241Z,10.11
2023-01-06T10:58:36.798Z,9.94
2023-01-06T11:01:10.502Z,9.94
2023-01-06T11:03:43.043Z,10.45
2023-01-06T11:06:18.298Z,10.17
2023-01-06T11:08:46.690Z,10.11
2023-01-06T11:11:27.854Z,9.96
2023-01-06T11:14:01.045Z,10.23
2023-01-06T11:16:31.849Z,10.08
2023-01-06T11:19:04.084Z,10.22
2023-01-06T11:21:41.646Z,10.25
2023-01-06T11:24:18.983Z,10.06
2023-01-06T11:26:52.629Z,10.55
2023-01-06T11:29:28.161Z,10.51
2023-01-06T11:31:58.011Z,10.32
2023-01-06T11:34:29.409Z,9.98
2023-01-06T11:36:59.696Z,10.42
2023-01-06T11:39:34.070Z,10.48
2023-01-06T11:42:12.472Z,10.80
2023-01-06T11:44:44.361Z,10.62
2023-01-06T11:47:18.045Z,10.87
2023-01-06T11:49:51.457Z,10.64
2023-01-06T11:52:23.679Z,10.52
2023-01-06T11:54:59.887Z,10.58
2023-01-06T11:57:37.850Z,10.67
2023-01-06T12:00:39.525Z,11.30
2023-01-06T12:03:18.812Z,11.17
2023-01-06T12:05:53.014Z,10.80
2023-01-06T12:08:24.755Z,11.00
2023-01-06T12:10:58.539Z,10.66
2023-01-06T12:13:27.865Z,11.04
2023-01-06T12:16:02.567Z,10.71
2023-01-06T12:18:36.257Z,11.22
2023-01-06T12:21:06.271Z,10.42
2023-01-06T12:23:37.411Z,10.29
2023-01-06T12:26:14.528Z,10.46
2023-01-06T12:28:47.164Z,10.44
2023-01-06T12:31:19.497Z,10.20
2023-01-06T12:33:55.804Z,10.51
2023-01-06T12:36:31.248Z,10.75
2023-01-06T12:39:03.983Z,10.78
2023-01-06T12:41:40.053Z,10.71
2023-01-06T12:44:17.985Z,11.08
2023-01-06T12:46:57.026Z,11.20
2023-01-06T12:49:38.849Z,10.89
2023-01-06T12:52:12.928Z,11.06
2023-01-06T12:54:41.679Z,11.61
2023-01-06T12:57:22.406Z,11.71
2023-01-06T13:00:01.784Z,12.02
2023-01-06T13:02:47.911Z,12.25
2023-01-06T13:05:38.703Z,11.67
2023-01-06T13:08:26.662Z,11.51
2023-01-06T13:11:07.820Z,11.24
2023-01-06T13:13:50.344Z,11.20
2023-01-06T13:16:27.268Z,11.00
2023-01-06T13:19:08.700Z,11.21
2023-01-06T13:21:39.946Z,10.90
2023-01-06T13:24:25.367Z,10.76
2023-01-06T13:27:18.840Z,10.77
2023-01-06T13:30:08.205Z,10.58
2023-01-06T13:32:53.727Z,10.53
2023-01-06T13:35:36.181Z,10.58
2023-01-06T13:38:24.684Z,10.81
2023-01-06T13:40:55.160Z,10.42
2023-01-06T13:43:27.531Z,10.38
2023-01-06T13:45:59.635Z,10.82
2023-01-06T13:48:31.267Z,10.72
2023-01-06T13:51:00.947Z,10.43
2023-01-06T13:53:38.372Z,10.43
2023-01-06T13:56:27.006Z,10.37
2023-01-06T13:59:23.984Z,10.44
2023-01-06T14:01:55.081Z,10.69
2023-01-06T14:04:47.096Z,10.71
2023-01-06T14:07:16.772Z,10.72
2023-01-06T14:09:58.682Z,10.52
2023-01-06T14:12:27.425Z,10.54
2023-01-06T14:14:58.008Z,10.49
2023-01-06T14:17:40.343Z,10.32
2023-01-06T14:20:24.083Z,10.09
2023-01-06T14:23:01.322Z,10.29
2023-01-06T14:25:32.278Z,9.72
2023-01-06T14:28:26.151Z,9.86
2023-01-06T14:31:47.765Z,9.82
2023-01-06T14:34:20.314Z,9.75
2023-01-06T14:36:51.831Z,9.73
2023-01-06T14:39:26.286Z,9.86
2023-01-06T14:42:01.967Z,9.94
2023-01-06T14:44:44.550Z,9.67
2023-01-06T14:47:18.391Z,9.77
2023-01-06T14:49:55.672Z,9.57
2023-01-06T14:52:33.623Z,9.72
2023-01-06T14:55:03.598Z,9.76
2023-01-06T14:57:36.853Z,9.87
2023-01-06T15:00:14.428Z,10.06
2023-01-06T15:02:46.853Z,9.91
2023-01-06T15:05:23.622Z,9.79
2023-01-06T15:08:00.438Z,9.79
2023-01-06T15:10:31.638Z,9.85
2023-01-06T15:13:01.381Z,9.84
2023-01-06T15:15:32.442Z,9.55
2023-01-06T15:18:03.943Z,9.75
2023-01-06T15:20:36.105Z,9.85
2023-01-06T15:23:04.895Z,9.67
2023-01-06T15:25:35.278Z,9.65
2023-01-06T15:28:05.632Z,9.79
2023-01-06T15:30:36.828Z,9.67
2023-01-06T15:33:06.303Z,9.82
2023-01-06T15:35:35.310Z,10.03
2023-01-06T15:38:08.376Z,9.93
2023-01-06T15:40:36.680Z,9.79
2023-01-06T15:43:09.582Z,9.84
2023-01-06T15:45:38.028Z,9.85
2023-01-06T15:48:12.910Z,9.67
2023-01-06T15:50:41.532Z,9.55
2023-01-06T15:53:21.498Z,9.78
2023-01-06T15:55:52.827Z,10.00
2023-01-06T15:58:25.024Z,9.84
2023-01-06T16:01:01.247Z,9.88
2023-01-06T16:03:32.591Z,10.07
2023-01-06T16:06:11.562Z,10.04
2023-01-06T16:08:41.452Z,10.05
2023-01-06T16:11:46.004Z,10.06
2023-01-06T16:14:29.204Z,10.20
2023-01-06T16:17:08.771Z,10.44
2023-01-06T16:19:41.373Z,10.29
2023-01-06T16:22:26.572Z,10.52
2023-01-06T16:24:55.363Z,10.35
2023-01-06T16:27:25.814Z,10.47
2023-01-06T16:30:22.218Z,10.60
2023-01-06T16:32:52.645Z,10.50
2023-01-06T16:35:23.287Z,10.29
2023-01-06T16:37:52.602Z,10.05
2023-01-06T16:40:24.867Z,10.21
2023-01-06T16:42:59.159Z,10.16
2023-01-06T16:45:33.890Z,10.13
2023-01-06T16:48:02.692Z,10.03
2023-01-06T16:50:35.678Z,10.05
2023-01-06T16:53:12.491Z,10.15
2023-01-06T16:55:42.683Z,10.03
2023-01-06T16:58:16.987Z,9.94
2023-01-06T17:00:51.919Z,9.94
2023-01-06T17:03:21.899Z,9.99
2023-01-06T17:05:50.025Z,10.04
2023-01-06T17:08:23.189Z,10.06
2023-01-06T17:10:52.176Z,9.84
2023-01-06T17:13:46.346Z,9.73
2023-01-06T17:16:18.088Z,9.77
2023-01-06T17:18:51.687Z,9.88
2023-01-06T17:21:22.560Z,10.19
2023-01-06T17:23:54.335Z,10.18
2023-01-06T17:26:24.462Z,9.95
2023-01-06T17:28:55.391Z,9.98
2023-01-06T17:31:32.228Z,9.98
2023-01-06T17:34:08.104Z,9.85
2023-01-06T17:36:39.518Z,9.93
2023-01-06T17:39:17.752Z,9.79
2023-01-06T17:41:46.447Z,10.00
2023-01-06T17:44:17.299Z,9.81
2023-01-06T17:46:47.754Z,9.94
2023-01-06T17:49:37.704Z,9.73
2023-01-06T17:52:16.769Z,9.63
2023-01-06T17:55:10.384Z,9.50
2023-01-06T17:57:41.496Z,9.59
2023-01-06T18:00:32.446Z,9.53
2023-01-06T18:03:05.167Z,9.67
2023-01-06T18:06:15.119Z,9.82
2023-01-06T18:08:44.796Z,9.73
2023-01-06T18:11:26.311Z,9.49
2023-01-06T18:13:55.167Z,9.86
2023-01-06T18:16:30.063Z,9.77
2023-01-06T18:19:23.879Z,9.73
2023-01-06T18:21:52.574Z,9.82
2023-01-06T18:24:24.817Z,9.89
2023-01-06T18:26:56.551Z,9.80
2023-01-06T18:29:27.690Z,9.91
2023-01-06T18:31:56.149Z,9.64
2023-01-06T18:34:40.111Z,9.77
2023-01-06T18:37:08.613Z,9.82
2023-01-06T18:39:41.579Z,9.83
2023-01-06T18:42:23.593Z,9.75
2023-01-06T18:44:56.891Z,9.58
2023-01-06T18:47:26.001Z,9.89
2023-01-06T18:49:59.588Z,9.80
2023-01-06T18:52:38.698Z,9.85
2023-01-06T18:55:24.129Z,9.85
2023-01-06T18:57:57.943Z,9.40
2023-01-06T19:00:38.705Z,9.28
2023-01-06T19:03:35.203Z,9.27
2023-01-06T19:06:26.604Z,9.09
2023-01-06T19:08:57.474Z,9.20
2023-01-06T19:11:27.763Z,9.38
2023-01-06T19:14:01.077Z,9.46
2023-01-06T19:16:35.404Z,9.46
2023-01-06T19:19:24.044Z,9.23
2023-01-06T19:21:58.246Z,9.34
2023-01-06T19:24:53.064Z,9.32
2023-01-06T19:27:32.063Z,9.37
2023-01-06T19:30:29.014Z,9.28
2023-01-06T19:33:00.764Z,9.44
2023-01-06T19:35:31.249Z,9.32
2023-01-06T19:38:04.082Z,9.51
2023-01-06T19:40:34.881Z,9.34
2023-01-06T19:43:14.248Z,9.13
2023-01-06T19:45:42.802Z,9.24
2023-01-06T19:48:17.806Z,9.36
2023-01-06T19:50:46.511Z,9.12
2023-01-06T19:53:41.557Z,9.36
2023-01-06T19:56:19.874Z,9.33
2023-01-06T19:58:53.709Z,9.60
2023-01-06T20:01:23.894Z,9.73
2023-01-06T20:03:55.253Z,9.72
2023-01-06T20:06:24.957Z,9.49
2023-01-06T20:08:55.227Z,9.79
2023-01-06T20:11:24.867Z,9.46
2023-01-06T20:13:53.363Z,9.49
2023-01-06T20:16:21.927Z,9.25
2023-01-06T20:18:51.155Z,9.13
2023-01-06T20:21:19.569Z,9.19
2023-01-06T20:23:48.224Z,9.08
2023-01-06T20:26:19.035Z,9.10
2023-01-06T20:28:48.152Z,8.95
2023-01-06T20:31:16.818Z,8.88
2023-01-06T20:33:46.316Z,8.87
2023-01-06T20:36:17.731Z,8.86
2023-01-06T20:38:46.656Z,8.88
2023-01-06T20:41:15.127Z,9.00
2023-01-06T20:43:45.209Z,9.01
2023-01-06T20:46:14.665Z,9.09
2023-01-06T20:48:43.859Z,9.32
2023-01-06T20:51:12.552Z,9.24
2023-01-06T20:53:40.716Z,9.10
2023-01-06T20:56:09.315Z,9.03
2023-01-06T20:58:37.681Z,9.10
2023-01-06T21:01:07.927Z,9.16
2023-01-06T21:03:36.182Z,9.01
2023-01-06T21:06:05.077Z,9.05
2023-01-06T21:08:33.779Z,9.13
2023-01-06T21:11:01.762Z,8.91
2023-01-06T21:13:30.364Z,8.96
2023-01-06T21:15:58.895Z,8.93
2023-01-06T21:18:28.683Z,8.62
2023-01-06T21:20:57.229Z,8.57
2023-01-06T21:23:25.773Z,8.37
2023-01-06T21:25:54.593Z,8.55
2023-01-06T21:28:23.225Z,8.34
2023-01-06T21:30:51.424Z,8.38
2023-01-06T21:33:21.581Z,8.27
2023-01-06T21:35:51.716Z,8.54
2023-01-06T21:38:20.349Z,8.38
2023-01-06T21:40:48.694Z,8.46
2023-01-06T21:43:15.944Z,8.55
2023-01-06T21:45:46.052Z,8.51
2023-01-06T21:48:15.107Z,8.63
2023-01-06T21:50:46.063Z,8.55
2023-01-06T21:53:16.127Z,8.38
2023-01-06T21:55:44.775Z,8.42
2023-01-06T21:58:13.387Z,8.40
2023-01-06T22:00:41.680Z,8.38
2023-01-06T22:03:10.430Z,8.17
2023-01-06T22:05:39.059Z,8.06
2023-01-06T22:08:07.738Z,8.04
2023-01-06T22:10:40.551Z,8.19
2023-01-06T22:13:10.879Z,8.18
2023-01-06T22:15:40.456Z,8.31
2023-01-06T22:18:08.835Z,8.34
2023-01-06T22:20:38.321Z,8.36
2023-01-06T22:23:10.797Z,8.33
2023-01-06T22:25:40.476Z,8.35
2023-01-06T22:28:09.342Z,8.39
2023-01-06T22:30:38.214Z,8.32
2023-01-06T22:33:06.785Z,8.25
2023-01-06T22:35:34.905Z,8.12
2023-01-06T22:38:03.729Z,8.11
2023-01-06T22:40:32.154Z,8.12
2023-01-06T22:43:02.107Z,8.15
2023-01-06T22:45:30.479Z,7.92
2023-01-06T22:47:58.620Z,7.87
2023-01-06T22:50:27.038Z,7.67
2023-01-06T22:52:56.986Z,7.62
2023-01-06T22:55:25.618Z,7.45
2023-01-06T22:57:53.835Z,7.80
2023-01-06T23:00:23.611Z,7.90
2023-01-06T23:02:52.010Z,8.17
2023-01-06T23:05:20.341Z,8.12
2023-01-06T23:07:48.859Z,7.96
2023-01-06T23:10:17.228Z,7.93
2023-01-06T23:12:45.721Z,7.86
2023-01-06T23:15:14.107Z,7.82
2023-01-06T23:17:44.124Z,7.77
2023-01-06T23:20:12.787Z,8.00
2023-01-06T23:22:40.902Z,8.06
2023-01-06T23:25:09.928Z,7.99
2023-01-06T23:27:39.029Z,7.77
2023-01-06T23:30:09.754Z,7.79
2023-01-06T23:32:38.028Z,7.71
2023-01-06T23:35:08.490Z,7.67
2023-01-06T23:37:36.892Z,7.49
2023-01-06T23:40:06.265Z,8.00
2023-01-06T23:42:40.940Z,8.22
2023-01-06T23:45:16.766Z,8.24
2023-01-06T23:47:45.144Z,8.22
2023-01-06T23:50:15.226Z,8.11
2023-01-06T23:52:43.633Z,8.32
2023-01-06T23:55:12.270Z,8.54
2023-01-06T23:57:40.980Z,8.70
